Time;durP1;ratioP1;P1;durP2;ratioP2;P2;SDS_P1;SDS_P2;PMS_P1;PMS_P2;Temp;Humidity;BMP_temperature;BMP_pressure;BME280_temperature;BME280_humidity;BME280_pressure;Samples;Min_cycle;Max_cycle;Signal;HPM_P1;HPM_P2
2022/04/07 00:01:40;;;;;;;;;;;;;;;8.36;77.12;97872.38;4993368;28;20058;-63
2022/04/07 00:04:24;;;;;;;7.30;3.10;;;;;;;8.33;77.32;97865.53;4993438;28;19921;-63
2022/04/07 00:07:08;;;;;;;6.72;3.00;;;;;;;8.34;77.21;97867.25;4993178;28;20108;-63
2022/04/07 00:09:53;;;;;;;4.15;2.95;;;;;;;8.36;77.21;97859.47;4992819;28;20128;-63
2022/04/07 00:12:37;;;;;;;5.38;2.85;;;;;;;8.34;77.25;97867.25;4992194;28;20083;-63
2022/04/07 00:15:23;;;;;;;3.97;2.50;;;;;;;8.35;77.25;97863.78;4992765;28;20049;-63
2022/04/07 00:18:07;;;;;;;3.33;2.72;;;;;;;8.36;77.26;97862.03;4993063;28;20095;-63
2022/04/07 00:20:52;;;;;;;3.50;2.55;;;;;;;8.36;77.19;97854.31;4993481;28;20107;-64
2022/04/07 00:23:36;;;;;;;3.53;3.22;;;;;;;8.36;77.28;97847.44;4992841;28;20050;-63
2022/04/07 00:26:20;;;;;;;5.03;3.13;;;;;;;8.35;77.32;97835.41;4992463;28;20053;-63
2022/04/07 00:29:04;;;;;;;3.88;2.63;;;;;;;8.36;77.38;97847.44;4992977;28;20065;-63
2022/04/07 00:31:56;;;;;;;4.28;2.95;;;;;;;8.38;77.17;97826.75;4992488;28;20063;-63
2022/04/07 00:34:43;;;;;;;5.38;3.05;;;;;;;8.37;77.31;97819.88;4992967;28;20091;-63
2022/04/07 00:38:07;;;;;;;6.93;2.83;;;;;;;8.38;77.50;97819.88;5111474;27;20241;-63
2022/04/07 00:40:51;;;;;;;4.80;2.88;;;;;;;8.38;77.44;97813.84;5111426;28;20046;-63
2022/04/07 00:43:37;;;;;;;3.83;2.30;;;;;;;8.39;77.32;97818.16;5096428;28;20051;-64
2022/04/07 00:46:21;;;;;;;4.47;2.70;;;;;;;8.40;77.26;97816.44;5095832;28;20047;-63
2022/04/07 00:49:05;;;;;;;8.10;3.42;;;;;;;8.36;77.32;97803.56;5111022;28;20047;-62
2022/04/07 00:51:49;;;;;;;4.03;2.75;;;;;;;8.38;77.31;97788.03;5095981;28;20139;-63
2022/04/07 00:54:34;;;;;;;3.78;2.70;;;;;;;8.41;77.25;97797.50;5111314;28;20123;-63
2022/04/07 00:57:18;;;;;;;;;;;;;;;8.37;77.25;97794.94;5111285;28;20479;-63
2022/04/07 01:00:04;;;;;;;3.70;2.88;;;;;;;8.37;77.14;97788.91;5111149;28;20447;-62
2022/04/07 01:02:48;;;;;;;3.25;2.95;;;;;;;8.38;77.48;97783.75;5095866;28;20046;-63
2022/04/07 01:05:32;;;;;;;5.25;2.88;;;;;;;8.39;77.40;97782.00;5095820;28;20391;-64
2022/04/07 01:08:15;;;;;;;4.63;2.88;;;;;;;8.40;77.38;97777.72;5110975;28;20410;-63
2022/04/07 01:10:59;;;;;;;2.88;2.55;;;;;;;8.38;77.37;97773.44;5111152;28;20050;-63
2022/04/07 01:13:45;;;;;;;3.08;2.33;;;;;;;8.41;77.19;97779.44;5110234;28;20051;-64
2022/04/07 01:16:30;;;;;;;3.47;2.75;;;;;;;8.39;77.46;97766.53;5095509;28;20124;-64
2022/04/07 01:19:13;;;;;;;;;;;;;;;8.40;77.40;97762.22;5111300;28;20047;-63
2022/04/07 01:21:58;;;;;;;4.07;2.70;;;;;;;8.39;77.48;97758.78;5110192;28;20393;-63
2022/04/07 01:24:42;;;;;;;7.68;2.72;;;;;;;8.38;77.34;97751.91;5095549;28;20078;-63
2022/04/07 01:27:27;;;;;;;;;;;;;;;8.38;77.34;97749.31;5110865;28;20081;-63
2022/04/07 01:30:10;;;;;;;3.58;2.80;;;;;;;8.38;77.26;97731.25;5095026;28;19958;-63
2022/04/07 01:32:57;;;;;;;3.47;2.97;;;;;;;8.37;77.29;97743.31;5110214;28;20485;-63
2022/04/07 01:35:41;;;;;;;4.97;3.20;;;;;;;8.36;77.26;97741.59;5109921;28;20567;-63
2022/04/07 01:38:25;;;;;;;7.13;2.78;;;;;;;8.36;77.21;97731.28;5110568;28;20051;-63
2022/04/07 01:41:08;;;;;;;3.65;2.10;;;;;;;8.38;77.46;97739.88;5110525;28;20054;-63
2022/04/07 01:43:56;;;;;;;3.10;2.42;;;;;;;8.38;77.30;97723.50;5109893;28;20097;-63
2022/04/07 01:46:40;;;;;;;3.88;2.72;;;;;;;8.39;77.18;97725.22;5095079;28;20094;-63
2022/04/07 01:49:26;;;;;;;2.80;2.42;;;;;;;8.40;77.46;97721.78;5081341;28;20576;-63
2022/04/07 01:52:12;;;;;;;4.25;2.33;;;;;;;8.38;77.42;97724.38;5081343;28;20105;-63
2022/04/07 01:54:58;;;;;;;2.92;2.15;;;;;;;8.41;77.49;97720.06;5096618;28;20391;-63
2022/04/07 01:57:44;;;;;;;3.83;2.30;;;;;;;8.39;77.29;97720.06;5080938;28;20121;-63
2022/04/07 02:00:28;;;;;;;7.18;2.65;;;;;;;8.40;77.42;97708.88;5081380;28;20165;-62
2022/04/07 02:03:12;;;;;;;5.97;2.55;;;;;;;8.39;77.69;97707.16;5095762;28;20112;-63
2022/04/07 02:06:18;;;;;;;5.22;2.67;;;;;;;8.39;77.46;97704.56;5094802;28;20085;-63
2022/04/07 02:09:02;;;;;;;6.72;2.85;;;;;;;8.42;77.24;97701.97;5080956;28;20127;-63
2022/04/07 02:11:47;;;;;;;6.18;2.60;;;;;;;8.39;77.81;97699.41;5095934;28;20119;-63
2022/04/07 02:14:33;;;;;;;5.72;2.70;;;;;;;8.39;77.16;97694.25;5095533;28;20113;-63
2022/04/07 02:17:20;;;;;;;4.07;2.55;;;;;;;8.41;77.27;97684.75;5080767;28;20573;-63
2022/04/07 02:20:07;;;;;;;4.75;2.30;;;;;;;8.41;77.04;97684.75;5080862;28;20055;-63
2022/04/07 02:22:52;;;;;;;6.90;2.85;;;;;;;8.43;77.27;97676.97;5080793;28;20441;-63
2022/04/07 02:25:36;;;;;;;7.28;2.75;;;;;;;8.42;77.56;97672.69;5095695;28;20047;-63
2022/04/07 02:28:20;;;;;;;5.97;2.60;;;;;;;8.41;77.38;97669.28;5095632;28;20127;-63
2022/04/07 02:31:04;;;;;;;;;;;;;;;8.39;77.37;97658.13;5096130;28;20105;-63
2022/04/07 02:33:48;;;;;;;5.50;3.13;;;;;;;8.40;77.49;97654.66;5095347;28;20413;-63
2022/04/07 02:36:31;;;;;;;6.10;2.95;;;;;;;8.39;77.47;97637.47;5095524;28;20058;-62
2022/04/07 02:39:15;;;;;;;5.22;2.42;;;;;;;8.39;77.39;97645.22;5095553;28;20510;-63
2022/04/07 02:42:00;;;;;;;5.28;2.95;;;;;;;8.41;77.14;97620.22;5095841;28;20051;-63
2022/04/07 02:44:43;;;;;;;7.10;2.22;;;;;;;8.41;77.19;97619.41;5095415;28;20061;-63
2022/04/07 02:47:39;;;;;;;5.65;3.08;;;;;;;8.41;77.14;97614.22;5095687;28;20403;-63
2022/04/07 02:50:23;;;;;;;5.65;2.95;;;;;;;8.43;77.18;97612.44;5080214;28;20083;-63
2022/04/07 02:53:07;;;;;;;3.80;2.33;;;;;;;8.43;77.33;97609.88;5095260;28;20514;-63
2022/04/07 02:55:51;;;;;;;6.18;2.88;;;;;;;8.44;77.25;97593.50;5094753;28;20145;-63
2022/04/07 02:58:35;;;;;;;6.60;2.85;;;;;;;8.44;77.15;97591.81;5094727;28;20062;-63
2022/04/07 03:01:19;;;;;;;5.45;3.10;;;;;;;8.44;77.34;97580.59;5094342;28;20082;-63
2022/04/07 03:04:03;;;;;;;6.07;2.92;;;;;;;8.44;77.45;97583.19;5080122;28;20078;-63
2022/04/07 03:06:47;;;;;;;4.95;2.42;;;;;;;8.44;77.73;97583.19;5094766;28;20078;-64
2022/04/07 03:09:31;;;;;;;5.55;3.22;;;;;;;8.44;77.48;97571.16;5095057;28;20120;-63
2022/04/07 03:12:15;;;;;;;7.07;3.08;;;;;;;8.44;77.71;97566.00;5095267;28;20556;-63
2022/04/07 03:14:59;;;;;;;5.40;2.70;;;;;;;8.44;77.79;97566.00;5093678;28;20062;-63
2022/04/07 03:17:42;;;;;;;6.32;2.85;;;;;;;8.46;77.47;97565.94;5094686;28;20105;-63
2022/04/07 03:20:26;;;;;;;3.38;2.63;;;;;;;8.45;77.55;97559.94;5094584;28;20146;-63
2022/04/07 03:23:11;;;;;;;3.65;2.75;;;;;;;8.43;77.71;97541.06;5079754;28;20505;-63
2022/04/07 03:25:55;;;;;;;5.63;2.60;;;;;;;8.45;77.52;97552.22;5095024;28;20079;-63
2022/04/07 03:28:38;;;;;;;3.38;2.90;;;;;;;8.45;77.77;97544.47;5094962;28;20090;-64
2022/04/07 03:31:22;;;;;;;4.50;2.60;;;;;;;8.45;77.89;97528.97;5094873;28;20124;-63
2022/04/07 03:34:06;;;;;;;4.18;2.45;;;;;;;8.45;77.72;97523.81;5094376;28;20086;-63
2022/04/07 03:36:50;;;;;;;4.07;2.65;;;;;;;8.46;77.71;97512.63;5093984;28;20514;-63
2022/04/07 03:39:34;;;;;;;3.85;3.08;;;;;;;8.47;77.84;97509.16;5094408;28;20047;-63
2022/04/07 03:42:18;;;;;;;5.80;2.50;;;;;;;8.45;77.91;97495.41;5094119;28;20526;-63
2022/04/07 03:45:02;;;;;;;6.10;3.20;;;;;;;8.45;77.98;97476.47;5094446;28;20510;-63
2022/04/07 03:47:45;;;;;;;3.47;2.97;;;;;;;8.45;77.96;97477.34;5094261;28;20043;-63
2022/04/07 03:50:29;;;;;;;4.38;3.03;;;;;;;8.45;77.85;97466.16;5094508;28;20047;-63
2022/04/07 03:53:13;;;;;;;7.78;2.95;;;;;;;8.47;77.80;97470.44;5093884;28;20465;-63
2022/04/07 03:55:57;;;;;;;3.58;2.70;;;;;;;8.45;78.04;97464.44;5093834;28;20090;-63
2022/04/07 03:58:41;;;;;;;7.55;3.25;;;;;;;8.48;77.90;97460.97;5093613;28;20165;-62
2022/04/07 04:01:28;;;;;;;4.68;2.67;;;;;;;8.46;77.80;97440.34;5094342;28;20448;-63
2022/04/07 04:04:12;;;;;;;8.65;3.05;;;;;;;8.46;77.93;97427.44;5093908;28;20051;-62
2022/04/07 04:06:56;;;;;;;7.07;2.72;;;;;;;8.47;77.86;97429.13;5093498;28;20134;-63
2022/04/07 04:09:40;;;;;;;4.18;2.65;;;;;;;8.47;78.03;97430.84;5093902;28;20070;-63
2022/04/07 04:12:24;;;;;;;4.55;2.88;;;;;;;8.49;77.84;97431.72;5093863;28;20079;-62
2022/04/07 04:15:08;;;;;;;6.07;2.72;;;;;;;8.49;78.27;97418.81;5093737;28;20047;-63
2022/04/07 04:17:52;;;;;;;3.60;2.85;;;;;;;8.48;78.01;97424.84;5078422;28;20047;-62
2022/04/07 04:20:36;;;;;;;4.03;2.72;;;;;;;8.47;78.05;97416.22;5078231;28;20096;-64
2022/04/07 04:23:20;;;;;;;7.03;2.58;;;;;;;8.47;78.34;97402.47;5094008;28;20555;-63
2022/04/07 04:26:04;;;;;;;2.55;2.22;;;;;;;8.48;77.52;97412.81;5093752;28;20051;-63
2022/04/07 04:28:48;;;;;;;4.85;2.35;;;;;;;8.45;78.12;97392.16;5093761;28;20097;-63
2022/04/07 04:31:31;;;;;;;3.95;2.75;;;;;;;8.44;78.23;97380.16;5094011;28;20078;-63
2022/04/07 04:34:15;;;;;;;5.30;2.25;;;;;;;8.45;78.22;97388.72;5093447;28;20043;-63
2022/04/07 04:36:59;;;;;;;5.32;2.75;;;;;;;8.46;78.19;97374.94;5093663;28;20464;-64
2022/04/07 04:39:43;;;;;;;3.58;2.78;;;;;;;8.46;78.54;97368.06;5093622;28;20046;-63
2022/04/07 04:42:27;;;;;;;3.60;2.90;;;;;;;8.45;78.46;97365.50;5078178;28;20047;-64
2022/04/07 04:45:11;;;;;;;4.72;2.30;;;;;;;8.44;78.33;97356.03;5093353;28;20475;-64
2022/04/07 04:47:55;;;;;;;8.45;3.28;;;;;;;8.45;78.71;97371.53;5093616;28;20083;-63
2022/04/07 04:50:39;;;;;;;;;;;;;;;8.44;78.68;97353.47;5093713;28;20051;-63
2022/04/07 04:53:24;;;;;;;;;;;;;;;8.43;78.78;97350.03;5094164;28;20369;-64
2022/04/07 04:56:07;;;;;;;;;;;;;;;8.43;78.62;97337.16;5094113;28;19923;-63
2022/04/07 04:58:51;;;;;;;;;;;;;;;8.44;78.56;97349.16;5078684;28;19962;-63
2022/04/07 05:01:35;;;;;;;;;;;;;;;8.44;78.67;97345.72;5093290;28;19923;-63
2022/04/07 05:04:19;;;;;;;;;;;;;;;8.44;78.86;97328.53;5093670;28;20057;-64
2022/04/07 05:07:03;;;;;;;;;;;;;;;8.45;78.89;97344.84;5093500;28;19965;-63
2022/04/07 05:09:47;;;;;;;;;;;;;;;8.46;78.79;97350.00;5078741;28;19958;-63
2022/04/07 05:12:31;;;;;;;;;;;;;;;8.46;78.57;97329.34;5093590;28;19969;-63
2022/04/07 05:15:15;;;;;;;;;;;;;;;8.44;78.61;97331.09;5093485;28;19962;-64
2022/04/07 05:17:59;;;;;;;;;;;;;;;8.43;78.58;97324.25;5093529;28;19966;-63
2022/04/07 05:20:43;;;;;;;;;;;;;;;8.41;78.69;97330.31;5093413;28;19927;-63
2022/04/07 05:23:28;;;;;;;;;;;;;;;8.40;78.63;97315.72;5095034;28;19923;-63
2022/04/07 05:26:12;;;;;;;;;;;;;;;8.40;78.68;97313.97;5096925;28;20394;-63
2022/04/07 05:28:56;;;;;;;;;;;;;;;8.38;78.66;97303.69;5096855;28;19927;-63
2022/04/07 05:31:40;;;;;;;;;;;;;;;8.40;78.55;97295.06;5081979;28;20405;-63
2022/04/07 05:34:24;;;;;;;;;;;;;;;8.38;78.61;97288.19;5081974;28;19961;-64
2022/04/07 05:37:08;;;;;;;;;;;;;;;8.38;78.92;97264.09;5096768;28;19969;-63
2022/04/07 05:39:52;;;;;;;;;;;;;;;8.38;78.83;97271.84;5082125;28;19922;-63
2022/04/07 05:42:36;;;;;;;;;;;;;;;8.37;78.81;97258.09;5082112;28;20416;-63
2022/04/07 05:45:20;;;;;;;;;;;;;;;8.37;78.83;97252.94;5096659;28;19930;-63
2022/04/07 05:48:04;;;;;;;;;;;;;;;8.39;78.78;97240.00;5097131;28;19922;-64
2022/04/07 05:50:48;;;;;;;;;;;;;;;8.37;78.96;97254.66;5096474;28;20405;-64
2022/04/07 05:53:32;;;;;;;;;;;;;;;8.38;79.02;97217.66;5081255;28;19923;-63
2022/04/07 05:56:16;;;;;;;;;;;;;;;8.38;79.05;97215.94;5081230;28;19927;-63
2022/04/07 05:59:00;;;;;;;;;;;;;;;8.39;78.82;97203.88;5096994;28;19965;-64
2022/04/07 06:01:44;;;;;;;;;;;;;;;8.39;79.02;97201.28;5096537;28;20018;-63
2022/04/07 06:04:28;;;;;;;;;;;;;;;8.41;79.03;97188.38;5096436;28;20034;-63
2022/04/07 06:07:11;;;;;;;;;;;;;;;8.40;78.97;97179.75;5096141;28;19939;-63
2022/04/07 06:09:55;;;;;;;;;;;;;;;8.40;78.96;97184.09;5081700;28;19939;-63
2022/04/07 06:12:42;;;;;;;;;;;;;;;8.39;79.18;97175.47;5081030;28;19950;-63
2022/04/07 06:15:28;;;;;;;;;;;;;;;8.38;79.00;97159.16;5081396;28;19969;-62
2022/04/07 06:18:13;;;;;;;;;;;;;;;8.39;79.11;97147.09;5096208;28;19968;-62
2022/04/07 06:20:57;;;;;;;;;;;;;;;8.40;79.17;97138.47;5080925;28;19923;-63
2022/04/07 06:23:42;;;;;;;;;;;;;;;8.42;79.00;97120.34;5096340;28;19970;-63
2022/04/07 06:26:26;;;;;;;;;;;;;;;8.44;79.03;97128.91;5096370;28;20325;-63
2022/04/07 06:29:10;;;;;;;;;;;;;;;8.43;79.01;97122.06;5081111;28;20347;-63
2022/04/07 06:31:54;;;;;;;;;;;;;;;8.42;79.10;97108.31;5081377;28;19965;-63
2022/04/07 06:34:39;;;;;;;;;;;;;;;8.41;79.25;97098.88;5095775;28;19923;-63
2022/04/07 06:37:23;;;;;;;;;;;;;;;8.42;79.10;97098.00;5080278;28;19930;-63
2022/04/07 06:40:07;;;;;;;;;;;;;;;8.42;79.23;97090.25;5081219;28;19923;-64
2022/04/07 06:42:52;;;;;;;;;;;;;;;8.41;79.28;97091.13;5095864;28;19923;-63
2022/04/07 06:45:36;;;;;;;;;;;;;;;8.40;79.60;97086.84;5080841;28;19964;-63
2022/04/07 06:48:21;;;;;;;;;;;;;;;8.44;79.37;97066.97;5095631;28;19981;-63
2022/04/07 06:51:04;;;;;;;;;;;;;;;8.43;79.67;97050.66;5081027;28;19923;-64
2022/04/07 06:53:48;;;;;;;;;;;;;;;8.43;79.57;97026.56;5080351;28;19966;-64
2022/04/07 06:56:32;;;;;;;;;;;;;;;8.45;79.56;97029.97;5095324;28;19923;-63
2022/04/07 06:59:16;;;;;;;;;;;;;;;8.47;79.50;97035.94;5095370;28;19923;-64
2022/04/07 07:02:00;;;;;;;;;;;;;;;8.48;79.51;97028.22;5095622;28;19927;-63
2022/04/07 07:04:44;;;;;;;;;;;;;;;8.47;79.53;97023.91;5095395;28;19968;-63
2022/04/07 07:07:28;;;;;;;;;;;;;;;8.49;79.43;97009.22;5094979;28;19923;-63
2022/04/07 07:10:12;;;;;;;;;;;;;;;8.48;79.65;96997.22;5095219;28;20028;-63
2022/04/07 07:12:59;;;;;;;;;;;;;;;8.51;79.40;96985.97;5079598;28;19926;-63
2022/04/07 07:15:43;;;;;;;;;;;;;;;8.49;79.64;96970.50;5095080;28;20402;-62
2022/04/07 07:18:27;;;;;;;;;;;;;;;8.52;79.52;96978.19;5095394;28;19922;-63
2022/04/07 07:21:11;;;;;;;;;;;;;;;8.54;79.60;96962.69;5095119;28;19923;-63
2022/04/07 07:23:55;;;;;;;;;;;;;;;8.55;79.88;96948.03;5095173;28;20424;-63
2022/04/07 07:26:39;;;;;;;;;;;;;;;8.56;79.79;96968.66;5095114;28;20402;-64
2022/04/07 07:29:23;;;;;;;;;;;;;;;8.57;79.82;96954.00;5095225;28;19923;-63
2022/04/07 07:32:07;;;;;;;;;;;;;;;8.58;79.81;96933.28;5094517;28;19945;-63
2022/04/07 07:34:51;;;;;;;;;;;;;;;8.60;80.11;96933.28;5094861;28;19923;-63
2022/04/07 07:37:36;;;;;;;;;;;;;;;8.60;79.93;96920.38;5094859;28;20011;-63
2022/04/07 07:40:24;;;;;;;;;;;;;;;8.62;80.08;96905.69;5094947;28;19939;-63
2022/04/07 07:43:08;;;;;;;;;;;;;;;8.63;79.89;96921.13;5095061;28;19958;-64
2022/04/07 07:45:52;;;;;;;;;;;;;;;8.65;79.86;96910.75;5094490;28;19938;-63
2022/04/07 07:48:36;;;;;;;;;;;;;;;8.64;79.88;96903.91;5094777;28;19977;-63
2022/04/07 07:51:20;;;;;;;;;;;;;;;8.65;79.86;96927.09;5079335;28;20011;-63
2022/04/07 07:54:04;;;;;;;;;;;;;;;8.67;79.92;96903.81;5079626;28;20050;-63
2022/04/07 07:56:48;;;;;;;;;;;;;;;8.68;80.01;96890.00;5078942;28;20439;-63
2022/04/07 07:59:32;;;;;;;;;;;;;;;8.68;80.07;96890.00;5079009;28;20440;-63
2022/04/07 08:02:15;;;;;;;;;;;;;;;8.71;79.81;96873.63;5094146;28;20485;-63
2022/04/07 08:05:00;;;;;;;;;;;;;;;8.73;79.75;96884.72;5094533;28;20427;-63
2022/04/07 08:07:44;;;;;;;;;;;;;;;8.74;79.82;96869.22;5079368;28;19930;-63
2022/04/07 08:10:28;;;;;;;;;;;;;;;8.76;80.02;96879.47;5094509;28;20313;-63
2022/04/07 08:13:12;;;;;;;;;;;;;;;8.76;80.11;96869.16;5094453;28;20271;-63
2022/04/07 08:15:56;;;;;;;;;;;;;;;8.77;79.78;96861.38;5093807;28;19969;-63
2022/04/07 08:18:40;;;;;;;;;;;;;;;8.79;79.80;96854.44;5093984;28;19927;-63
2022/04/07 08:21:24;;;;;;;;;;;;;;;8.82;80.05;96869.00;5094297;28;19970;-63
2022/04/07 08:24:08;;;;;;;;;;;;;;;8.81;80.28;96852.63;5079165;28;19990;-64
2022/04/07 08:26:52;;;;;;;;;;;;;;;8.85;79.91;96850.84;5094188;28;19927;-63
2022/04/07 08:29:36;;;;;;;;;;;;;;;8.86;79.95;96842.22;5079061;28;20015;-63
2022/04/07 08:32:20;;;;;;;;;;;;;;;8.88;79.80;96855.91;5078665;28;20026;-63
2022/04/07 08:35:04;;;;;;;;;;;;;;;8.90;79.84;96838.63;5093600;28;19922;-63
2022/04/07 08:37:48;;;;;;;;;;;;;;;8.92;79.81;96842.00;5093587;28;20023;-63
2022/04/07 08:40:34;;;;;;;;;;;;;;;8.94;79.83;96822.16;5094292;28;19922;-63
2022/04/07 08:43:19;;;;;;;;;;;;;;;8.95;79.97;96830.75;5093766;28;19931;-63
2022/04/07 08:46:05;;;;;;;;;;;;;;;8.96;80.25;96824.69;5093953;28;19923;-63
2022/04/07 08:48:49;;;;;;;;;;;;;;;8.98;80.15;96825.50;5093928;28;19954;-63
2022/04/07 08:51:33;;;;;;;;;;;;;;;8.97;80.08;96824.66;5093411;28;20416;-63
2022/04/07 08:54:18;;;;;;;;;;;;;;;8.99;79.90;96824.59;5094107;28;19923;-63
2022/04/07 08:57:03;;;;;;;;;;;;;;;9.00;80.10;96828.88;5078742;28;19970;-63
2022/04/07 08:59:47;;;;;;;;;;;;;;;9.01;79.82;96827.97;5097141;28;19923;-63
2022/04/07 09:02:31;;;;;;;;;;;;;;;9.01;79.88;96825.41;5097514;28;19924;-63
2022/04/07 09:05:17;;;;;;;;;;;;;;;9.01;80.15;96837.50;5097950;28;20008;-64
2022/04/07 09:08:01;;;;;;;;;;;;;;;9.02;80.01;96815.94;5082141;28;20026;-63
2022/04/07 09:10:52;;;;;;;;;;;;;;;9.01;80.01;96806.50;5097885;28;20015;-63
2022/04/07 09:13:36;;;;;;;;;;;;;;;9.01;80.27;96819.41;5097771;28;19923;-63
2022/04/07 09:16:20;;;;;;;;;;;;;;;9.01;80.06;96815.06;5097137;28;19966;-63
2022/04/07 09:19:05;;;;;;;;;;;;;;;9.02;80.09;96798.69;5082262;28;19969;-63
2022/04/07 09:22:09;;;;;;;;;;;;;;;9.03;80.12;96818.47;5097063;28;20124;-62
2022/04/07 09:24:52;;;;;;;;;;;;;;;9.04;80.15;96807.25;5081927;28;19931;-63
2022/04/07 09:27:42;;;;;;;;;;;;;;;9.05;80.17;96808.06;5096950;28;20340;-63
2022/04/07 09:30:35;;;;;;;;;;;;;;;9.05;80.36;96883.84;5081948;28;19980;-63
2022/04/07 09:33:20;;;;;;;;;;;;;;;9.03;80.52;96906.28;5096884;28;19923;-64
2022/04/07 09:36:10;;;;;;;;;;;;;;;8.98;80.48;96921.06;5082106;28;19923;-63
2022/04/07 09:38:55;;;;;;;;;;;;;;;8.92;80.71;96911.75;5082071;28;19923;-63
2022/04/07 09:41:39;;;;;;;;;;;;;;;8.88;80.31;96917.03;5082196;28;20267;-64
2022/04/07 09:44:26;;;;;;;;;;;;;;;8.85;80.81;96912.81;5097459;28;20331;-64
2022/04/07 09:47:11;;;;;;;;;;;;;;;8.83;80.62;96919.75;5096842;28;19969;-63
2022/04/07 09:49:55;;;;;;;;;;;;;;;8.82;80.62;96923.22;5096842;28;19923;-64
2022/04/07 09:52:40;;;;;;;;;;;;;;;8.80;80.67;96919.84;5097359;28;19923;-63
2022/04/07 09:55:29;;;;;;;;;;;;;;;8.81;80.73;96932.69;5081569;28;19938;-63
2022/04/07 09:58:14;;;;;;;;;;;;;;;8.81;80.54;96935.28;5081481;28;19930;-63
2022/04/07 10:01:01;;;;;;;;;;;;;;;8.82;80.52;96925.81;5096994;28;19923;-64
2022/04/07 10:03:47;;;;;;;;;;;;;;;8.81;80.65;96950.75;5081682;28;19930;-63
2022/04/07 10:06:32;;;;;;;;;;;;;;;8.81;80.74;96960.25;5081426;28;20407;-63
2022/04/07 10:09:17;;;;;;;;;;;;;;;8.81;80.56;96968.84;5081201;28;19969;-63
2022/04/07 10:12:02;;;;;;;;;;;;;;;8.77;80.88;96958.63;5081469;28;19958;-63
2022/04/07 10:14:46;;;;;;;;;;;;;;;8.75;80.63;96968.16;5081103;28;19942;-63
2022/04/07 10:17:30;;;;;;;;;;;;;;;8.73;80.50;96973.38;5096359;28;20007;-63
2022/04/07 10:20:16;;;;;;;;;;;;;;;8.73;80.68;96978.53;5096626;28;19962;-63
2022/04/07 10:23:18;;;;;;;;;;;;;;;8.75;80.42;96974.19;5081345;28;19927;-63
2022/04/07 10:26:03;;;;;;;;;;;;;;;8.75;80.41;96981.94;5096141;28;19964;-63
2022/04/07 10:28:54;;;;;;;;;;;;;;;8.77;80.31;96982.75;5080889;28;19961;-63
2022/04/07 10:31:38;;;;;;;;;;;;;;;8.78;80.16;96991.31;5096255;28;19923;-63
2022/04/07 10:34:30;;;;;;;;;;;;;;;8.77;80.13;96969.84;5080710;28;19923;-63
2022/04/07 10:37:14;;;;;;;;;;;;;;;8.82;80.19;96990.38;5080390;28;20389;-63
2022/04/07 10:40:17;;;;;;;;;;;;;;;8.85;80.01;96992.88;5095981;28;19923;-62
2022/04/07 10:43:10;;;;;;;;;;;;;;;8.90;80.05;97009.06;5081018;28;19954;-63
2022/04/07 10:46:14;;;;;;;;;;;;;;;8.93;80.30;96992.69;5095852;28;19965;-63
2022/04/07 10:49:00;;;;;;;;;;;;;;;8.96;80.08;97001.19;5095750;28;19923;-63
2022/04/07 10:51:51;;;;;;;;;;;;;;;8.98;80.04;97002.00;5080684;28;19923;-63
2022/04/07 10:54:55;;;;;;;;;;;;;;;9.01;80.08;97003.63;5095782;28;19922;-63
2022/04/07 10:57:58;;;;;;;;;;;;;;;9.02;79.84;97005.34;5095479;28;20007;-63
2022/04/07 11:00:42;;;;;;;;;;;;;;;9.02;79.77;97018.25;5095794;28;20258;-63
2022/04/07 11:03:25;;;;;;;;;;;;;;;9.00;79.99;97014.84;5095848;28;20346;-63
2022/04/07 11:06:11;;;;;;;;;;;;;;;8.97;79.86;97020.97;5095590;28;19969;-63
2022/04/07 11:09:11;;;;;;;;;;;;;;;8.95;79.59;97033.06;5080315;28;19922;-63
2022/04/07 11:11:55;;;;;;;;;;;;;;;8.93;79.38;97045.16;5096048;28;19927;-64
2022/04/07 11:14:39;;;;;;;;;;;;;;;8.92;79.50;97027.97;5095042;28;20393;-63
2022/04/07 11:17:28;;;;;;;;;;;;;;;8.93;79.34;97037.41;5095089;28;19965;-62
2022/04/07 11:20:19;;;;;;;;;;;;;;;8.94;79.36;97046.88;5094635;28;19923;-63
2022/04/07 11:23:09;;;;;;;;;;;;;;;8.96;79.31;97049.41;5095106;28;19974;-63
2022/04/07 11:25:52;;;;;;;;;;;;;;;8.96;79.52;97047.69;5079645;28;19922;-63
2022/04/07 11:28:39;;;;;;;;;;;;;;;8.95;79.11;97050.31;5094873;28;20390;-63
2022/04/07 11:31:48;;;;;;;;;;;;;;;8.94;79.33;97051.19;5079813;28;20386;-63
2022/04/07 11:34:35;;;;;;;;;;;;;;;8.93;78.99;97049.50;5094861;28;19922;-63
2022/04/07 11:37:19;;;;;;;;;;;;;;;8.94;79.33;97077.88;5094538;28;19923;-64
2022/04/07 11:40:04;;;;;;;;;;;;;;;8.95;79.15;97052.91;5080011;28;20007;-63
2022/04/07 11:42:49;;;;;;;;;;;;;;;8.98;79.27;97058.81;5079723;28;19931;-63
2022/04/07 11:45:33;;;;;;;;;;;;;;;9.01;79.00;97063.06;5094657;28;19923;-63
2022/04/07 11:48:17;;;;;;;;;;;;;;;9.02;79.16;97090.59;5095116;28;19923;-63
2022/04/07 11:51:08;;;;;;;;;;;;;;;9.05;79.10;97064.69;5094727;28;19923;-63
2022/04/07 11:53:53;;;;;;;;;;;;;;;9.06;78.84;97076.72;5094739;28;20062;-63
2022/04/07 11:56:38;;;;;;;;;;;;;;;9.08;79.00;97077.53;5094643;28;19969;-63
2022/04/07 11:59:22;;;;;;;;;;;;;;;9.09;78.49;97086.97;5079201;28;19923;-63
2022/04/07 12:02:07;;;;;;;;;;;;;;;9.12;78.64;97091.22;5094337;28;19923;-64
2022/04/07 12:04:55;;;;;;;;;;;;;;;9.11;78.57;97086.94;5079154;28;20022;-63
2022/04/07 12:07:40;;;;;;;;;;;;;;;9.11;78.24;97081.75;5078972;28;19922;-63
2022/04/07 12:10:24;;;;;;;;;;;;;;;9.13;78.40;97119.56;5078771;28;19923;-63
2022/04/07 12:13:08;;;;;;;;;;;;;;;9.13;78.27;97105.81;5079369;28;19923;-63
2022/04/07 12:15:52;;;;;;;;;;;;;;;9.13;78.05;97108.41;5094258;28;19922;-64
2022/04/07 12:18:36;;;;;;;;;;;;;;;9.13;78.15;97113.56;5094074;28;20428;-64
2022/04/07 12:21:20;;;;;;;;;;;;;;;9.14;77.99;97097.19;5093955;28;20016;-63
2022/04/07 12:24:13;;;;;;;;;;;;;;;9.14;78.07;97126.44;5094340;28;20019;-63
2022/04/07 12:27:01;;;;;;;;;;;;;;;9.14;77.92;97123.03;5093948;28;20283;-65
2022/04/07 12:29:47;;;;;;;;;;;;;;;9.16;77.89;97122.97;5079206;28;20394;-63
2022/04/07 12:32:42;;;;;;;;;;;;;;;9.15;77.96;97129.88;5093706;28;19962;-64
2022/04/07 12:35:42;;;;;;;;;;;;;;;9.14;77.65;97120.44;5079102;28;19949;-63
2022/04/07 12:38:26;;;;;;;;;;;;;;;9.16;77.63;97126.44;5078648;28;19927;-63
2022/04/07 12:41:12;;;;;;;;;;;;;;;9.16;77.42;97123.84;5093618;28;19926;-64
2022/04/07 12:43:56;;;;;;;;;;;;;;;9.14;77.36;97129.03;5079307;28;20420;-63
2022/04/07 12:46:53;;;;;;;;;;;;;;;9.16;77.63;97152.25;5094005;28;19927;-64
2022/04/07 12:49:37;;;;;;;;;;;;;;;9.17;77.44;97160.84;5078606;28;19938;-64
2022/04/07 12:52:32;;;;;;;;;;;;;;;9.17;77.10;97143.63;5094504;28;19958;-63
2022/04/07 12:55:17;;;;;;;;;;;;;;;9.17;77.68;97153.09;5078682;28;19923;-64
2022/04/07 12:58:01;;;;;;;;;;;;;;;9.16;77.23;97157.44;5078099;28;19923;-63
2022/04/07 13:00:57;;;;;;;;;;;;;;;9.18;77.10;97159.97;5078565;28;20386;-64
2022/04/07 13:03:54;;;;;;;;;;;;;;;9.20;77.38;97165.94;5093563;28;20299;-63
2022/04/07 13:06:38;;;;;;;;;;;;;;;9.20;77.09;97164.19;5078334;28;19970;-63
2022/04/07 13:09:21;;;;;;;;;;;;;;;9.20;76.79;97159.03;5093473;28;20389;-64
2022/04/07 13:12:05;;;;;;;;;;;;;;;9.21;76.88;97167.66;5093497;28;19923;-63
2022/04/07 13:14:49;;;;;;;;;;;;;;;9.21;76.95;97188.31;5078239;28;20299;-64
2022/04/07 13:17:33;;;;;;;;;;;;;;;9.20;76.98;97181.44;5093786;28;19922;-63
2022/04/07 13:20:17;;;;;;;;;;;;;;;9.20;76.68;97178.88;5094047;28;19923;-63
2022/04/07 13:23:01;;;;;;;;;;;;;;;9.20;76.65;97187.47;5093651;28;19939;-64
2022/04/07 13:25:45;;;;;;;;;;;;;;;9.21;76.51;97196.06;5078884;28;19929;-63
2022/04/07 13:28:29;;;;;;;;;;;;;;;9.20;76.83;97191.78;5093083;28;20436;-63
2022/04/07 13:31:13;;;;;;;;;;;;;;;9.20;76.66;97195.22;5093542;28;19942;-63
2022/04/07 13:33:59;;;;;;;;;;;;;;;9.21;76.08;97189.16;5093035;28;19926;-64
2022/04/07 13:36:43;;;;;;;;;;;;;;;9.23;76.57;97181.38;5092919;28;20007;-64
2022/04/07 13:39:27;;;;;;;;;;;;;;;9.23;76.07;97204.66;5093480;28;20049;-64
2022/04/07 13:42:11;;;;;;;;;;;;;;;9.20;75.91;97233.13;5093411;28;20316;-63
2022/04/07 13:44:55;;;;;;;;;;;;;;;9.19;75.89;97196.09;5080517;28;19923;-63
2022/04/07 13:47:39;;;;;;;;;;;;;;;9.19;75.94;97218.50;5096639;28;20291;-64
2022/04/07 13:50:23;;;;;;;;;;;;;;;9.18;75.80;97220.25;5097418;28;19923;-64
2022/04/07 13:53:08;;;;;;;;;;;;;;;9.17;75.97;97215.97;5096899;28;19969;-63
2022/04/07 13:55:52;;;;;;;;;;;;;;;9.16;75.60;97213.41;5081667;28;19923;-63
2022/04/07 13:58:36;;;;;;;;;;;;;;;9.16;75.44;97226.34;5096383;28;20393;-64
2022/04/07 14:01:21;;;;;;;;;;;;;;;9.16;75.64;97240.13;5096894;28;20008;-63
2022/04/07 14:04:05;;;;;;;;;;;;;;;9.13;75.02;97250.53;5096538;28;20287;-63